sensor_id;sensor_type;location;lat;lon;timestamp;P1;durP1;ratioP1;P2;durP2;ratioP2
63653;SDS011;49809;47.418;19.080;2022-09-09T10:38:46;1.27;;;0.70;;
63653;SDS011;49809;47.418;19.080;2022-09-09T10:42:16;1.05;;;0.70;;
63653;SDS011;49809;47.418;19.080;2022-09-09T10:53:35;0.77;;;0.57;;
63653;SDS011;49809;47.418;19.080;2022-09-09T11:04:22;0.70;;;0.70;;
63653;SDS011;49809;47.418;19.080;2022-09-09T11:07:37;0.70;;;0.70;;
63653;SDS011;49809;47.418;19.080;2022-09-09T11:11:01;0.77;;;0.75;;
63653;SDS011;49809;47.418;19.080;2022-09-09T11:17:42;0.50;;;0.50;;
63653;SDS011;49809;47.418;19.080;2022-09-09T11:20:53;0.57;;;0.40;;
63653;SDS011;49809;47.418;19.080;2022-09-09T11:24:04;0.47;;;0.47;;
63653;SDS011;49809;47.418;19.080;2022-09-09T11:38:45;0.70;;;0.55;;
63653;SDS011;49809;47.418;19.080;2022-09-09T11:42:23;0.52;;;0.50;;
63653;SDS011;49809;47.418;19.080;2022-09-09T11:45:59;0.65;;;0.50;;
63653;SDS011;49809;47.418;19.080;2022-09-09T11:49:40;0.60;;;0.60;;
63653;SDS011;49809;47.418;19.080;2022-09-09T11:56:29;0.60;;;0.60;;
63653;SDS011;49809;47.418;19.080;2022-09-09T12:07:56;0.50;;;0.50;;
63653;SDS011;49809;47.418;19.080;2022-09-09T12:11:02;1.25;;;0.70;;
63653;SDS011;49809;47.418;19.080;2022-09-09T12:14:19;0.50;;;0.50;;
63653;SDS011;49809;47.418;19.080;2022-09-09T12:17:25;0.77;;;0.70;;
63653;SDS011;49809;47.418;19.080;2022-09-09T12:20:31;0.75;;;0.60;;
63653;SDS011;49809;47.418;19.080;2022-09-09T12:27:18;0.50;;;0.50;;
63653;SDS011;49809;47.418;19.080;2022-09-09T12:31:20;0.50;;;0.50;;
63653;SDS011;49809;47.418;19.080;2022-09-09T12:38:44;0.85;;;0.73;;
63653;SDS011;49809;47.418;19.080;2022-09-09T12:42:15;0.90;;;0.90;;
63653;SDS011;49809;47.418;19.080;2022-09-09T12:45:41;1.02;;;0.70;;
63653;SDS011;49809;47.418;19.080;2022-09-09T12:48:48;0.93;;;0.73;;
63653;SDS011;49809;47.418;19.080;2022-09-09T12:51:52;1.87;;;0.85;;
63653;SDS011;49809;47.418;19.080;2022-09-09T12:55:23;1.08;;;0.70;;
63653;SDS011;49809;47.418;19.080;2022-09-09T12:59:18;1.12;;;0.80;;
63653;SDS011;49809;47.418;19.080;2022-09-09T13:02:26;0.75;;;0.70;;
63653;SDS011;49809;47.418;19.080;2022-09-09T13:05:47;0.68;;;0.65;;
63653;SDS011;49809;47.418;19.080;2022-09-09T13:08:51;1.83;;;0.80;;
63653;SDS011;49809;47.418;19.080;2022-09-09T13:11:56;0.70;;;0.70;;
63653;SDS011;49809;47.418;19.080;2022-09-09T13:15:09;0.75;;;0.70;;
63653;SDS011;49809;47.418;19.080;2022-09-09T13:18:55;3.22;;;0.90;;
63653;SDS011;49809;47.418;19.080;2022-09-09T13:21:58;1.30;;;1.00;;
63653;SDS011;49809;47.418;19.080;2022-09-09T13:25:18;0.80;;;0.70;;
63653;SDS011;49809;47.418;19.080;2022-09-09T13:28:25;0.73;;;0.73;;
63653;SDS011;49809;47.418;19.080;2022-09-09T13:32:06;0.77;;;0.75;;
63653;SDS011;49809;47.418;19.080;2022-09-09T13:35:48;1.15;;;0.80;;
63653;SDS011;49809;47.418;19.080;2022-09-09T13:42:05;1.15;;;0.90;;
63653;SDS011;49809;47.418;19.080;2022-09-09T13:45:20;5.28;;;0.65;;
63653;SDS011;49809;47.418;19.080;2022-09-09T13:48:29;0.98;;;0.85;;
63653;SDS011;49809;47.418;19.080;2022-09-09T13:54:49;0.70;;;0.70;;
63653;SDS011;49809;47.418;19.080;2022-09-09T14:01:03;0.60;;;0.60;;
63653;SDS011;49809;47.418;19.080;2022-09-09T14:04:08;0.90;;;0.70;;
63653;SDS011;49809;47.418;19.080;2022-09-09T14:07:16;0.90;;;0.70;;
63653;SDS011;49809;47.418;19.080;2022-09-09T14:10:23;0.70;;;0.55;;
63653;SDS011;49809;47.418;19.080;2022-09-09T14:13:26;1.33;;;0.70;;
63653;SDS011;49809;47.418;19.080;2022-09-09T14:16:53;2.97;;;1.00;;
63653;SDS011;49809;47.418;19.080;2022-09-09T14:20:25;0.73;;;0.70;;
63653;SDS011;49809;47.418;19.080;2022-09-09T14:24:14;0.60;;;0.60;;
63653;SDS011;49809;47.418;19.080;2022-09-09T14:27:46;0.95;;;0.70;;
63653;SDS011;49809;47.418;19.080;2022-09-09T14:31:26;1.02;;;0.80;;
63653;SDS011;49809;47.418;19.080;2022-09-09T14:35:00;4.40;;;1.33;;
63653;SDS011;49809;47.418;19.080;2022-09-09T14:38:29;1.10;;;0.80;;
63653;SDS011;49809;47.418;19.080;2022-09-09T14:42:20;0.73;;;0.70;;
63653;SDS011;49809;47.418;19.080;2022-09-09T14:46:13;0.68;;;0.68;;
63653;SDS011;49809;47.418;19.080;2022-09-09T14:50:06;1.95;;;0.70;;
63653;SDS011;49809;47.418;19.080;2022-09-09T14:53:51;0.80;;;0.80;;
63653;SDS011;49809;47.418;19.080;2022-09-09T14:57:07;0.70;;;0.62;;
63653;SDS011;49809;47.418;19.080;2022-09-09T15:00:18;0.80;;;0.80;;
63653;SDS011;49809;47.418;19.080;2022-09-09T15:03:24;0.70;;;0.70;;
63653;SDS011;49809;47.418;19.080;2022-09-09T15:07:15;1.10;;;0.80;;
63653;SDS011;49809;47.418;19.080;2022-09-09T15:10:42;0.88;;;0.77;;
63653;SDS011;49809;47.418;19.080;2022-09-09T15:13:50;1.25;;;0.90;;
63653;SDS011;49809;47.418;19.080;2022-09-09T15:20:16;2.17;;;0.90;;
63653;SDS011;49809;47.418;19.080;2022-09-09T15:23:42;1.15;;;0.77;;
63653;SDS011;49809;47.418;19.080;2022-09-09T15:26:50;0.90;;;0.80;;
63653;SDS011;49809;47.418;19.080;2022-09-09T15:30:34;0.60;;;0.60;;
63653;SDS011;49809;47.418;19.080;2022-09-09T15:34:13;1.12;;;0.60;;
63653;SDS011;49809;47.418;19.080;2022-09-09T15:41:32;3.17;;;0.73;;
63653;SDS011;49809;47.418;19.080;2022-09-09T15:44:48;24.03;;;7.37;;
63653;SDS011;49809;47.418;19.080;2022-09-09T15:48:11;1.00;;;0.88;;
63653;SDS011;49809;47.418;19.080;2022-09-09T15:51:16;35.22;;;10.40;;
63653;SDS011;49809;47.418;19.080;2022-09-09T15:54:42;14.47;;;4.70;;
63653;SDS011;49809;47.418;19.080;2022-09-09T15:57:46;1.77;;;1.27;;
63653;SDS011;49809;47.418;19.080;2022-09-09T16:01:10;2.05;;;0.93;;
63653;SDS011;49809;47.418;19.080;2022-09-09T16:04:18;0.80;;;0.80;;
63653;SDS011;49809;47.418;19.080;2022-09-09T16:07:29;0.85;;;0.60;;
63653;SDS011;49809;47.418;19.080;2022-09-09T16:10:33;0.90;;;0.70;;
63653;SDS011;49809;47.418;19.080;2022-09-09T16:13:58;1.70;;;0.80;;
63653;SDS011;49809;47.418;19.080;2022-09-09T16:17:34;1.05;;;0.80;;
63653;SDS011;49809;47.418;19.080;2022-09-09T16:20:41;1.08;;;0.73;;
63653;SDS011;49809;47.418;19.080;2022-09-09T16:23:45;0.93;;;0.82;;
63653;SDS011;49809;47.418;19.080;2022-09-09T16:27:09;0.80;;;0.80;;
63653;SDS011;49809;47.418;19.080;2022-09-09T16:30:14;1.10;;;0.70;;
63653;SDS011;49809;47.418;19.080;2022-09-09T16:34:02;1.00;;;0.90;;
63653;SDS011;49809;47.418;19.080;2022-09-09T16:37:08;1.08;;;0.90;;
63653;SDS011;49809;47.418;19.080;2022-09-09T16:40:12;2.55;;;1.00;;
63653;SDS011;49809;47.418;19.080;2022-09-09T16:43:16;1.15;;;0.93;;
63653;SDS011;49809;47.418;19.080;2022-09-09T16:46:25;1.00;;;0.70;;
63653;SDS011;49809;47.418;19.080;2022-09-09T16:49:31;1.10;;;1.00;;
63653;SDS011;49809;47.418;19.080;2022-09-09T16:52:34;0.80;;;0.80;;
63653;SDS011;49809;47.418;19.080;2022-09-09T16:58:48;2.05;;;1.23;;
63653;SDS011;49809;47.418;19.080;2022-09-09T17:02:02;2.10;;;1.20;;
63653;SDS011;49809;47.418;19.080;2022-09-09T17:05:08;1.33;;;1.20;;
63653;SDS011;49809;47.418;19.080;2022-09-09T17:08:12;3.60;;;1.35;;
63653;SDS011;49809;47.418;19.080;2022-09-09T17:11:17;2.45;;;1.20;;
63653;SDS011;49809;47.418;19.080;2022-09-09T17:14:23;1.58;;;1.20;;
63653;SDS011;49809;47.418;19.080;2022-09-09T17:17:27;2.70;;;1.30;;
63653;SDS011;49809;47.418;19.080;2022-09-09T17:20:39;2.78;;;1.65;;
63653;SDS011;49809;47.418;19.080;2022-09-09T17:23:50;1.55;;;1.30;;
63653;SDS011;49809;47.418;19.080;2022-09-09T17:26:56;1.50;;;1.40;;
63653;SDS011;49809;47.418;19.080;2022-09-09T17:30:00;1.95;;;1.40;;
63653;SDS011;49809;47.418;19.080;2022-09-09T17:33:06;1.70;;;1.30;;
63653;SDS011;49809;47.418;19.080;2022-09-09T17:36:10;3.45;;;1.40;;
63653;SDS011;49809;47.418;19.080;2022-09-09T17:39:18;2.17;;;1.50;;
63653;SDS011;49809;47.418;19.080;2022-09-09T17:42:25;3.10;;;1.67;;
63653;SDS011;49809;47.418;19.080;2022-09-09T17:45:28;3.50;;;1.60;;
63653;SDS011;49809;47.418;19.080;2022-09-09T17:48:38;1.98;;;1.42;;
63653;SDS011;49809;47.418;19.080;2022-09-09T17:51:42;2.35;;;1.60;;
63653;SDS011;49809;47.418;19.080;2022-09-09T17:54:48;3.75;;;1.80;;
63653;SDS011;49809;47.418;19.080;2022-09-09T17:57:52;1.40;;;1.30;;
63653;SDS011;49809;47.418;19.080;2022-09-09T18:01:00;2.67;;;1.75;;
63653;SDS011;49809;47.418;19.080;2022-09-09T18:04:08;3.40;;;1.60;;
63653;SDS011;49809;47.418;19.080;2022-09-09T18:07:12;4.43;;;1.60;;
63653;SDS011;49809;47.418;19.080;2022-09-09T18:10:15;4.97;;;1.70;;
63653;SDS011;49809;47.418;19.080;2022-09-09T18:13:20;1.80;;;1.50;;
63653;SDS011;49809;47.418;19.080;2022-09-09T18:16:26;3.65;;;1.70;;
63653;SDS011;49809;47.418;19.080;2022-09-09T18:19:34;3.58;;;1.98;;
63653;SDS011;49809;47.418;19.080;2022-09-09T18:22:38;5.22;;;1.70;;
63653;SDS011;49809;47.418;19.080;2022-09-09T18:25:42;2.72;;;1.90;;
63653;SDS011;49809;47.418;19.080;2022-09-09T18:29:06;3.40;;;2.08;;
63653;SDS011;49809;47.418;19.080;2022-09-09T18:32:19;6.20;;;2.15;;
63653;SDS011;49809;47.418;19.080;2022-09-09T18:35:23;2.00;;;1.80;;
63653;SDS011;49809;47.418;19.080;2022-09-09T18:38:47;4.78;;;2.10;;
63653;SDS011;49809;47.418;19.080;2022-09-09T18:41:51;2.95;;;1.87;;
63653;SDS011;49809;47.418;19.080;2022-09-09T18:44:56;4.95;;;2.30;;
63653;SDS011;49809;47.418;19.080;2022-09-09T18:48:00;3.87;;;2.47;;
63653;SDS011;49809;47.418;19.080;2022-09-09T18:51:08;3.87;;;2.17;;
63653;SDS011;49809;47.418;19.080;2022-09-09T18:54:30;3.95;;;2.25;;
63653;SDS011;49809;47.418;19.080;2022-09-09T18:57:42;4.28;;;2.60;;
63653;SDS011;49809;47.418;19.080;2022-09-09T19:01:10;6.93;;;2.03;;
63653;SDS011;49809;47.418;19.080;2022-09-09T19:04:15;3.80;;;2.17;;
63653;SDS011;49809;47.418;19.080;2022-09-09T19:07:18;4.90;;;3.15;;
63653;SDS011;49809;47.418;19.080;2022-09-09T19:10:24;4.87;;;2.65;;
63653;SDS011;49809;47.418;19.080;2022-09-09T19:13:31;4.22;;;2.15;;
63653;SDS011;49809;47.418;19.080;2022-09-09T19:16:35;3.78;;;1.75;;
63653;SDS011;49809;47.418;19.080;2022-09-09T19:19:40;3.42;;;1.92;;
63653;SDS011;49809;47.418;19.080;2022-09-09T19:23:22;5.32;;;2.20;;
63653;SDS011;49809;47.418;19.080;2022-09-09T19:26:42;3.67;;;2.37;;
63653;SDS011;49809;47.418;19.080;2022-09-09T19:29:50;4.10;;;2.53;;
63653;SDS011;49809;47.418;19.080;2022-09-09T19:32:58;2.78;;;2.00;;
63653;SDS011;49809;47.418;19.080;2022-09-09T19:36:02;3.15;;;2.30;;
63653;SDS011;49809;47.418;19.080;2022-09-09T19:39:07;2.20;;;1.60;;
63653;SDS011;49809;47.418;19.080;2022-09-09T19:42:11;2.12;;;1.48;;
63653;SDS011;49809;47.418;19.080;2022-09-09T19:45:15;4.10;;;1.62;;
63653;SDS011;49809;47.418;19.080;2022-09-09T19:48:17;1.90;;;1.60;;
63653;SDS011;49809;47.418;19.080;2022-09-09T19:51:23;2.80;;;1.85;;
63653;SDS011;49809;47.418;19.080;2022-09-09T19:54:27;2.60;;;1.87;;
63653;SDS011;49809;47.418;19.080;2022-09-09T19:57:31;3.15;;;1.83;;
63653;SDS011;49809;47.418;19.080;2022-09-09T20:00:34;2.80;;;2.10;;
63653;SDS011;49809;47.418;19.080;2022-09-09T20:03:42;3.33;;;2.05;;
63653;SDS011;49809;47.418;19.080;2022-09-09T20:06:46;3.15;;;2.72;;
63653;SDS011;49809;47.418;19.080;2022-09-09T20:09:50;2.70;;;2.12;;
63653;SDS011;49809;47.418;19.080;2022-09-09T20:12:54;5.20;;;2.40;;
63653;SDS011;49809;47.418;19.080;2022-09-09T20:16:09;3.50;;;2.10;;
63653;SDS011;49809;47.418;19.080;2022-09-09T20:19:19;7.70;;;3.03;;
63653;SDS011;49809;47.418;19.080;2022-09-09T20:22:29;4.15;;;3.10;;
63653;SDS011;49809;47.418;19.080;2022-09-09T20:25:35;3.33;;;2.58;;
63653;SDS011;49809;47.418;19.080;2022-09-09T20:28:41;3.97;;;3.22;;
63653;SDS011;49809;47.418;19.080;2022-09-09T20:31:45;3.22;;;2.65;;
63653;SDS011;49809;47.418;19.080;2022-09-09T20:34:49;4.62;;;3.50;;
63653;SDS011;49809;47.418;19.080;2022-09-09T20:37:52;4.00;;;2.95;;
63653;SDS011;49809;47.418;19.080;2022-09-09T20:41:07;5.30;;;3.60;;
63653;SDS011;49809;47.418;19.080;2022-09-09T20:44:18;4.30;;;3.55;;
63653;SDS011;49809;47.418;19.080;2022-09-09T20:47:24;4.22;;;3.55;;
63653;SDS011;49809;47.418;19.080;2022-09-09T20:50:29;6.10;;;3.90;;
63653;SDS011;49809;47.418;19.080;2022-09-09T20:53:33;5.45;;;3.78;;
63653;SDS011;49809;47.418;19.080;2022-09-09T20:56:37;4.75;;;3.67;;
63653;SDS011;49809;47.418;19.080;2022-09-09T20:59:42;6.43;;;3.95;;
63653;SDS011;49809;47.418;19.080;2022-09-09T21:02:49;4.32;;;3.58;;
63653;SDS011;49809;47.418;19.080;2022-09-09T21:05:52;6.18;;;3.80;;
63653;SDS011;49809;47.418;19.080;2022-09-09T21:08:56;5.15;;;3.87;;
63653;SDS011;49809;47.418;19.080;2022-09-09T21:12:01;4.90;;;3.28;;
63653;SDS011;49809;47.418;19.080;2022-09-09T21:15:07;4.22;;;3.33;;
63653;SDS011;49809;47.418;19.080;2022-09-09T21:18:10;5.43;;;3.62;;
63653;SDS011;49809;47.418;19.080;2022-09-09T21:21:15;5.62;;;3.90;;
63653;SDS011;49809;47.418;19.080;2022-09-09T21:24:20;4.77;;;3.53;;
63653;SDS011;49809;47.418;19.080;2022-09-09T21:27:23;4.97;;;3.60;;
63653;SDS011;49809;47.418;19.080;2022-09-09T21:31:26;4.53;;;3.65;;
63653;SDS011;49809;47.418;19.080;2022-09-09T21:34:32;4.28;;;3.62;;
63653;SDS011;49809;47.418;19.080;2022-09-09T21:37:36;4.95;;;3.42;;
63653;SDS011;49809;47.418;19.080;2022-09-09T21:40:38;5.60;;;3.67;;
63653;SDS011;49809;47.418;19.080;2022-09-09T21:43:45;5.00;;;3.85;;
63653;SDS011;49809;47.418;19.080;2022-09-09T21:46:53;6.20;;;4.40;;
63653;SDS011;49809;47.418;19.080;2022-09-09T21:49:56;6.25;;;3.83;;
63653;SDS011;49809;47.418;19.080;2022-09-09T21:52:58;4.90;;;3.58;;
63653;SDS011;49809;47.418;19.080;2022-09-09T21:56:05;5.93;;;3.92;;
63653;SDS011;49809;47.418;19.080;2022-09-09T21:59:11;6.95;;;3.95;;
63653;SDS011;49809;47.418;19.080;2022-09-09T22:02:16;7.32;;;4.57;;
63653;SDS011;49809;47.418;19.080;2022-09-09T22:05:25;5.45;;;4.32;;
63653;SDS011;49809;47.418;19.080;2022-09-09T22:08:28;5.47;;;4.00;;
63653;SDS011;49809;47.418;19.080;2022-09-09T22:11:31;6.50;;;4.53;;
63653;SDS011;49809;47.418;19.080;2022-09-09T22:14:33;5.55;;;4.18;;
63653;SDS011;49809;47.418;19.080;2022-09-09T22:17:38;6.18;;;4.60;;
63653;SDS011;49809;47.418;19.080;2022-09-09T22:20:41;6.35;;;4.90;;
63653;SDS011;49809;47.418;19.080;2022-09-09T22:23:52;7.05;;;4.45;;
63653;SDS011;49809;47.418;19.080;2022-09-09T22:26:57;7.37;;;4.93;;
63653;SDS011;49809;47.418;19.080;2022-09-09T22:30:02;5.80;;;4.43;;
63653;SDS011;49809;47.418;19.080;2022-09-09T22:33:05;6.12;;;4.78;;
63653;SDS011;49809;47.418;19.080;2022-09-09T22:36:09;6.70;;;4.70;;
63653;SDS011;49809;47.418;19.080;2022-09-09T22:39:14;6.65;;;4.78;;
63653;SDS011;49809;47.418;19.080;2022-09-09T22:42:20;5.63;;;4.47;;
63653;SDS011;49809;47.418;19.080;2022-09-09T22:45:25;7.80;;;4.63;;
63653;SDS011;49809;47.418;19.080;2022-09-09T22:48:32;6.68;;;4.65;;
63653;SDS011;49809;47.418;19.080;2022-09-09T22:51:38;5.37;;;4.35;;
63653;SDS011;49809;47.418;19.080;2022-09-09T22:54:41;6.50;;;4.53;;
63653;SDS011;49809;47.418;19.080;2022-09-09T22:57:48;6.25;;;4.62;;
63653;SDS011;49809;47.418;19.080;2022-09-09T23:00:56;5.13;;;4.10;;
63653;SDS011;49809;47.418;19.080;2022-09-09T23:04:01;6.65;;;4.43;;
63653;SDS011;49809;47.418;19.080;2022-09-09T23:07:04;6.55;;;4.53;;
63653;SDS011;49809;47.418;19.080;2022-09-09T23:10:09;6.37;;;4.97;;
63653;SDS011;49809;47.418;19.080;2022-09-09T23:13:17;6.32;;;4.47;;
63653;SDS011;49809;47.418;19.080;2022-09-09T23:16:26;6.68;;;4.35;;
63653;SDS011;49809;47.418;19.080;2022-09-09T23:19:31;6.97;;;4.62;;
63653;SDS011;49809;47.418;19.080;2022-09-09T23:22:37;5.85;;;4.30;;
63653;SDS011;49809;47.418;19.080;2022-09-09T23:25:42;9.57;;;4.60;;
63653;SDS011;49809;47.418;19.080;2022-09-09T23:28:46;5.97;;;4.65;;
63653;SDS011;49809;47.418;19.080;2022-09-09T23:31:53;7.03;;;5.05;;
63653;SDS011;49809;47.418;19.080;2022-09-09T23:35:00;6.65;;;4.82;;
63653;SDS011;49809;47.418;19.080;2022-09-09T23:38:03;6.95;;;4.87;;
63653;SDS011;49809;47.418;19.080;2022-09-09T23:41:07;6.28;;;4.87;;
63653;SDS011;49809;47.418;19.080;2022-09-09T23:44:18;7.75;;;4.28;;
63653;SDS011;49809;47.418;19.080;2022-09-09T23:47:21;6.55;;;4.78;;
63653;SDS011;49809;47.418;19.080;2022-09-09T23:50:24;6.35;;;4.60;;
63653;SDS011;49809;47.418;19.080;2022-09-09T23:53:28;7.80;;;5.43;;
63653;SDS011;49809;47.418;19.080;2022-09-09T23:56:37;9.55;;;5.37;;
63653;SDS011;49809;47.418;19.080;2022-09-09T23:59:43;7.00;;;4.55;;
